createdAt,value
2019-01-02T00:02:05.008Z,5.60
2019-01-02T00:07:10.001Z,5.70
2019-01-02T00:12:14.993Z,5.60
2019-01-02T00:17:20.036Z,5.70
2019-01-02T00:22:25.014Z,5.70
2019-01-02T00:27:30.493Z,5.40
2019-01-02T00:32:35.496Z,5.40
2019-01-02T00:37:40.496Z,5.60
2019-01-02T00:42:45.494Z,5.50
2019-01-02T00:47:50.495Z,5.50
2019-01-02T00:52:55.497Z,5.70
2019-01-02T00:58:00.513Z,5.80
2019-01-02T01:03:05.946Z,5.90
2019-01-02T01:08:11.539Z,5.90
2019-01-02T01:13:35.986Z,5.80
2019-01-02T01:18:41.750Z,5.70
2019-01-02T01:23:46.737Z,5.70
2019-01-02T01:28:51.761Z,5.60
2019-01-02T01:33:56.757Z,5.70
2019-01-02T01:39:02.151Z,5.60
2019-01-02T01:44:07.679Z,5.50
2019-01-02T01:49:12.694Z,5.50
2019-01-02T01:54:18.017Z,5.50
2019-01-02T01:59:23.032Z,5.50
2019-01-02T02:04:28.028Z,5.60
2019-01-02T02:09:33.439Z,5.70
2019-01-02T02:14:38.469Z,5.80
2019-01-02T02:19:43.509Z,5.80
2019-01-02T02:24:48.896Z,5.90
2019-01-02T02:29:54.306Z,5.90
2019-01-02T02:34:59.314Z,5.90
2019-01-02T02:40:04.986Z,6.00
2019-01-02T02:45:11.532Z,6.00
2019-01-02T02:50:17.665Z,6.00
2019-01-02T02:55:25.545Z,6.00
2019-01-02T03:00:30.520Z,5.90
2019-01-02T03:05:35.527Z,5.90
2019-01-02T03:10:40.602Z,5.90
2019-01-02T03:15:46.195Z,5.80
2019-01-02T03:20:51.578Z,5.80
2019-01-02T03:25:56.589Z,5.90
2019-01-02T03:31:01.994Z,5.80
2019-01-02T03:36:07.292Z,5.90
2019-01-02T03:41:12.275Z,5.90
2019-01-02T03:46:17.263Z,5.90
2019-01-02T03:51:22.243Z,5.90
2019-01-02T03:56:27.232Z,5.80
2019-01-02T04:01:32.212Z,5.70
2019-01-02T04:06:37.208Z,5.60
2019-01-02T04:11:42.239Z,5.50
2019-01-02T04:16:47.300Z,5.50
2019-01-02T04:21:52.332Z,5.50
2019-01-02T04:26:57.338Z,5.50
2019-01-02T04:32:02.324Z,5.40
2019-01-02T04:37:07.319Z,5.30
2019-01-02T04:42:12.305Z,5.20
2019-01-02T04:47:17.315Z,5.30
2019-01-02T04:52:22.385Z,5.30
2019-01-02T04:57:27.381Z,5.20
2019-01-02T05:02:32.383Z,5.20
2019-01-02T05:07:37.380Z,5.20
2019-01-02T05:12:42.403Z,5.30
2019-01-02T05:17:47.388Z,5.30
2019-01-02T05:22:52.379Z,5.30
2019-01-02T05:27:57.420Z,5.00
2019-01-02T05:33:02.416Z,5.10
2019-01-02T05:38:07.445Z,5.10
2019-01-02T05:43:12.424Z,5.30
2019-01-02T05:48:17.428Z,5.40
2019-01-02T05:53:22.424Z,5.40
2019-01-02T05:58:27.480Z,5.30
2019-01-02T06:03:32.481Z,5.20
2019-01-02T06:08:37.497Z,5.30
2019-01-02T06:13:42.541Z,5.40
2019-01-02T06:18:47.556Z,5.50
2019-01-02T06:23:52.544Z,5.50
2019-01-02T06:28:57.544Z,5.40
2019-01-02T06:34:02.526Z,5.30
2019-01-02T06:39:08.991Z,5.30
2019-01-02T06:44:13.976Z,5.20
2019-01-02T06:49:18.976Z,5.00
2019-01-02T06:54:24.008Z,4.70
2019-01-02T06:59:29.028Z,4.50
2019-01-02T07:04:34.019Z,4.30
2019-01-02T07:09:39.033Z,4.20
2019-01-02T07:14:44.019Z,4.20
2019-01-02T07:19:48.993Z,4.00
2019-01-02T07:24:53.983Z,3.90
2019-01-02T07:29:58.997Z,3.70
2019-01-02T07:35:50.172Z,3.70
2019-01-02T07:41:51.514Z,3.80
2019-01-02T07:47:42.446Z,3.80
2019-01-02T07:53:08.994Z,3.60
2019-01-02T07:58:55.500Z,3.50
2019-01-02T08:04:30.712Z,3.60
2019-01-02T08:10:12.684Z,3.80
2019-01-02T08:15:49.377Z,3.90
2019-01-02T08:21:51.208Z,3.90
2019-01-02T08:27:32.071Z,3.80
2019-01-02T08:33:27.012Z,4.00
2019-01-02T08:39:18.198Z,3.90
2019-01-02T08:44:52.956Z,3.70
2019-01-02T08:50:24.781Z,3.70
2019-01-02T08:55:43.931Z,3.60
2019-01-02T09:01:20.004Z,3.70
2019-01-02T09:06:52.080Z,3.70
2019-01-02T09:12:32.786Z,3.80
2019-01-02T09:18:14.844Z,3.90
2019-01-02T09:24:04.297Z,3.90
2019-01-02T09:29:46.420Z,4.00
2019-01-02T09:35:12.765Z,4.10
2019-01-02T09:40:58.357Z,4.20
2019-01-02T09:46:56.434Z,4.30
2019-01-02T09:52:54.265Z,4.50
2019-01-02T09:58:32.391Z,4.60
2019-01-02T10:04:14.618Z,4.70
2019-01-02T10:10:00.267Z,4.90
2019-01-02T10:15:31.701Z,5.00
2019-01-02T10:21:38.993Z,5.20
2019-01-02T10:27:09.359Z,5.30
2019-01-02T10:33:19.506Z,5.50
2019-01-02T10:39:09.693Z,5.50
2019-01-02T10:44:31.388Z,5.60
2019-01-02T10:50:22.951Z,5.70
2019-01-02T10:56:12.043Z,5.70
2019-01-02T11:01:39.297Z,5.70
2019-01-02T11:07:22.797Z,5.80
2019-01-02T11:13:17.701Z,5.80
2019-01-02T11:18:49.293Z,5.80
2019-01-02T11:24:25.128Z,5.90
2019-01-02T11:29:59.741Z,5.90
2019-01-02T11:35:50.915Z,6.00
2019-01-02T11:41:27.691Z,6.00
2019-01-02T11:46:32.709Z,6.00
2019-01-02T11:51:37.684Z,6.10
2019-01-02T11:56:42.671Z,6.10
2019-01-02T12:01:47.664Z,6.10
2019-01-02T12:06:52.649Z,6.10
2019-01-02T12:11:57.627Z,5.90
2019-01-02T12:17:02.625Z,5.90
2019-01-02T12:22:07.672Z,5.90
2019-01-02T12:27:12.742Z,5.90
2019-01-02T12:32:18.019Z,5.90
2019-01-02T12:37:23.000Z,6.00
2019-01-02T12:42:27.988Z,6.00
2019-01-02T12:47:32.984Z,6.00
2019-01-02T12:52:38.232Z,5.90
2019-01-02T12:57:43.204Z,5.90
2019-01-02T13:03:41.465Z,5.90
2019-01-02T13:09:29.559Z,5.90
2019-01-02T13:15:12.737Z,5.90
2019-01-02T13:20:48.172Z,5.80
2019-01-02T13:26:10.421Z,5.80
2019-01-02T13:32:01.394Z,5.80
2019-01-02T13:37:32.262Z,5.70
2019-01-02T13:43:06.048Z,5.70
2019-01-02T13:48:55.040Z,5.70
2019-01-02T13:54:00.030Z,5.60
2019-01-02T13:59:05.068Z,5.60
2019-01-02T14:04:10.836Z,5.50
2019-01-02T14:09:15.823Z,5.50
2019-01-02T14:14:20.804Z,5.40
2019-01-02T14:19:25.780Z,5.30
2019-01-02T14:24:30.755Z,5.20
2019-01-02T14:29:35.955Z,5.00
2019-01-02T14:34:40.936Z,4.80
2019-01-02T14:39:45.907Z,4.60
2019-01-02T14:44:50.937Z,4.50
2019-01-02T14:49:55.919Z,4.30
2019-01-02T14:55:01.162Z,4.20
2019-01-02T15:00:10.546Z,4.10
2019-01-02T15:05:15.527Z,4.00
2019-01-02T15:10:20.855Z,3.90
2019-01-02T15:15:25.865Z,3.80
2019-01-02T15:20:30.902Z,3.70
2019-01-02T15:25:37.752Z,3.60
2019-01-02T15:30:42.712Z,3.60
2019-01-02T15:35:49.063Z,3.60
2019-01-02T15:40:54.207Z,3.40
2019-01-02T15:45:59.225Z,3.10
2019-01-02T15:51:04.241Z,2.80
2019-01-02T15:56:09.232Z,2.50
2019-01-02T16:01:14.272Z,2.40
2019-01-02T16:06:19.252Z,2.30
2019-01-02T16:11:24.259Z,2.20
2019-01-02T16:16:29.383Z,2.00
2019-01-02T16:21:34.417Z,2.00
2019-01-02T16:26:39.559Z,2.00
2019-01-02T16:31:44.606Z,2.10
2019-01-02T16:36:49.594Z,2.00
2019-01-02T16:41:54.587Z,2.00
2019-01-02T16:46:59.598Z,2.10
2019-01-02T16:52:04.600Z,2.10
2019-01-02T16:57:09.602Z,2.20
2019-01-02T17:02:14.632Z,2.20
2019-01-02T17:07:19.663Z,2.10
2019-01-02T17:12:24.691Z,1.70
2019-01-02T17:17:29.723Z,1.50
2019-01-02T17:22:34.792Z,1.20
2019-01-02T17:27:41.059Z,0.90
2019-01-02T17:32:46.065Z,0.60
2019-01-02T17:37:51.224Z,0.50
2019-01-02T17:42:56.233Z,0.40
2019-01-02T17:48:01.292Z,0.30
2019-01-02T17:53:06.483Z,0.30
2019-01-02T17:58:11.490Z,0.30
2019-01-02T18:03:16.551Z,0.40
2019-01-02T18:08:21.566Z,0.50
2019-01-02T18:13:26.559Z,0.70
2019-01-02T18:18:31.615Z,1.00
2019-01-02T18:23:36.606Z,1.30
2019-01-02T18:28:41.875Z,1.60
2019-01-02T18:33:46.947Z,1.80
2019-01-02T18:38:52.610Z,2.00
2019-01-02T18:43:57.965Z,2.10
2019-01-02T18:49:03.171Z,2.20
2019-01-02T18:54:09.755Z,2.20
2019-01-02T18:59:14.758Z,2.30
2019-01-02T19:04:19.884Z,2.20
2019-01-02T19:09:24.899Z,2.10
2019-01-02T19:14:29.905Z,2.20
2019-01-02T19:19:34.927Z,2.20
2019-01-02T19:24:39.967Z,2.20
2019-01-02T19:29:44.967Z,2.20
2019-01-02T19:34:49.978Z,2.00
2019-01-02T19:39:54.984Z,1.90
2019-01-02T19:45:00.033Z,1.70
2019-01-02T19:50:05.411Z,1.70
2019-01-02T19:55:10.417Z,1.80
2019-01-02T20:00:15.416Z,2.00
2019-01-02T20:05:20.411Z,2.10
2019-01-02T20:10:25.566Z,2.00
2019-01-02T20:15:30.583Z,1.90
2019-01-02T20:20:35.607Z,1.80
2019-01-02T20:25:40.727Z,1.70
2019-01-02T20:30:45.725Z,1.90
2019-01-02T20:35:50.735Z,2.00
2019-01-02T20:40:55.773Z,2.10
2019-01-02T20:46:00.748Z,2.20
2019-01-02T20:51:05.769Z,2.30
2019-01-02T20:56:10.815Z,2.50
2019-01-02T21:01:15.819Z,2.70
2019-01-02T21:06:20.805Z,2.90
2019-01-02T21:11:25.806Z,3.00
2019-01-02T21:16:30.809Z,3.10
2019-01-02T21:21:35.852Z,3.10
2019-01-02T21:26:40.864Z,3.20
2019-01-02T21:31:45.883Z,3.30
2019-01-02T21:36:50.907Z,3.20
2019-01-02T21:41:55.887Z,3.10
2019-01-02T21:47:00.924Z,2.90
2019-01-02T21:52:05.924Z,2.80
2019-01-02T21:57:11.017Z,2.70
2019-01-02T22:02:15.998Z,2.50
2019-01-02T22:07:21.052Z,2.40
2019-01-02T22:12:26.052Z,2.20
2019-01-02T22:17:31.075Z,2.10
2019-01-02T22:22:36.139Z,2.00
2019-01-02T22:27:41.475Z,2.00
2019-01-02T22:32:46.495Z,2.10
2019-01-02T22:37:51.613Z,2.10
2019-01-02T22:42:56.636Z,2.20
2019-01-02T22:48:01.635Z,2.30
2019-01-02T22:53:06.816Z,2.50
2019-01-02T22:58:11.850Z,2.50
2019-01-02T23:03:38.834Z,2.70
2019-01-02T23:09:14.741Z,2.80
2019-01-02T23:14:37.323Z,2.90
2019-01-02T23:20:01.258Z,2.70
2019-01-02T23:25:31.284Z,2.50
2019-01-02T23:30:55.759Z,2.50
2019-01-02T23:36:37.828Z,2.40
2019-01-02T23:42:08.420Z,2.40
2019-01-02T23:47:44.978Z,2.40
2019-01-02T23:53:09.042Z,2.60
2019-01-02T23:58:35.773Z,2.70
